Time;durP1;ratioP1;P1;durP2;ratioP2;P2;SDS_P1;SDS_P2;PMS_P1;PMS_P2;Temp;Humidity;BMP_temperature;BMP_pressure;BME280_temperature;BME280_humidity;BME280_pressure;Samples;Min_cycle;Max_cycle;Signal;HPM_P1;HPM_P2
2021/08/27 00:00:02;;;;;;;8.83;4.00;;;;;;;;;;10392169;28;20297;-69
2021/08/27 00:05:05;;;;;;;12.43;4.60;;;;;;;;;;10392737;28;20205;-70
2021/08/27 00:10:09;;;;;;;10.40;4.47;;;;;;;;;;10396613;28;20197;-70
2021/08/27 00:15:13;;;;;;;9.37;4.47;;;;;;;;;;10389131;28;20213;-69
2021/08/27 00:20:16;;;;;;;9.87;4.53;;;;;;;;;;10395462;28;20260;-70
2021/08/27 00:25:18;;;;;;;9.93;4.73;;;;;;;;;;10395363;28;20306;-70
2021/08/27 00:30:23;;;;;;;11.93;4.77;;;;;;;;;;10396490;28;20196;-69
2021/08/27 00:35:25;;;;;;;10.03;4.63;;;;;;;;;;10393414;28;20243;-70
2021/08/27 00:40:28;;;;;;;11.53;4.60;;;;;;;;;;10393964;28;20193;-69
2021/08/27 00:45:32;;;;;;;9.40;4.73;;;;;;;;;;10390841;28;20768;-70
2021/08/27 00:50:35;;;;;;;10.50;4.20;;;;;;;;;;10392355;28;20268;-70
2021/08/27 00:55:38;;;;;;;10.03;4.37;;;;;;;;;;10398012;28;20404;-68
2021/08/27 01:00:42;;;;;;;10.10;4.90;;;;;;;;;;10393164;28;20229;-71
2021/08/27 01:05:47;;;;;;;8.13;4.27;;;;;;;;;;10405544;28;20225;-71
2021/08/27 01:10:51;;;;;;;11.67;5.07;;;;;;;;;;10400550;28;20199;-67
2021/08/27 01:16:18;;;;;;;11.50;5.10;;;;;;;;;;10403248;28;20604;-70
2021/08/27 01:21:58;;;;;;;9.37;4.33;;;;;;;;;;10404230;28;20229;-69
2021/08/27 01:27:20;;;;;;;12.03;5.37;;;;;;;;;;10397710;28;20198;-69
2021/08/27 01:32:30;;;;;;;8.53;4.13;;;;;;;;;;10399698;28;21003;-68
2021/08/27 01:37:35;;;;;;;10.53;4.53;;;;;;;;;;10404378;28;20218;-68
2021/08/27 01:42:38;;;;;;;9.87;4.47;;;;;;;;;;10402953;28;20241;-70
2021/08/27 01:47:41;;;;;;;8.87;4.17;;;;;;;;;;10399797;28;20667;-69
2021/08/27 01:52:46;;;;;;;8.93;4.43;;;;;;;;;;10403706;28;20727;-70
2021/08/27 01:57:49;;;;;;;10.43;4.20;;;;;;;;;;10399803;28;20305;-69
2021/08/27 02:02:52;;;;;;;10.93;4.90;;;;;;;;;;10400124;28;20209;-69
2021/08/27 02:07:58;;;;;;;9.67;4.70;;;;;;;;;;10400715;28;20211;-70
2021/08/27 02:13:01;;;;;;;12.60;5.53;;;;;;;;;;10396346;28;20225;-69
2021/08/27 02:18:04;;;;;;;11.37;5.57;;;;;;;;;;10401427;28;20674;-70
2021/08/27 02:23:09;;;;;;;10.47;6.03;;;;;;;;;;10400364;28;20217;-70
2021/08/27 02:28:11;;;;;;;14.70;7.00;;;;;;;;;;10398915;28;20190;-70
2021/08/27 02:33:15;;;;;;;15.33;7.63;;;;;;;;;;10400444;28;20224;-70
2021/08/27 02:38:22;;;;;;;16.00;8.17;;;;;;;;;;10403195;28;20296;-70
2021/08/27 02:43:25;;;;;;;12.63;6.87;;;;;;;;;;10397066;28;20215;-69
2021/08/27 02:48:27;;;;;;;13.63;7.50;;;;;;;;;;10396781;28;20878;-70
2021/08/27 02:53:33;;;;;;;14.30;7.87;;;;;;;;;;10397861;28;20236;-70
2021/08/27 02:58:36;;;;;;;14.07;6.90;;;;;;;;;;10396443;28;20238;-70
2021/08/27 03:03:39;;;;;;;16.33;8.30;;;;;;;;;;10397734;28;20298;-71
2021/08/27 03:08:46;;;;;;;15.50;7.87;;;;;;;;;;10399294;28;20780;-70
2021/08/27 03:13:55;;;;;;;15.53;7.77;;;;;;;;;;10395669;28;20646;-70
2021/08/27 03:19:00;;;;;;;15.03;7.53;;;;;;;;;;10397116;28;20217;-70
2021/08/27 03:24:08;;;;;;;13.00;6.23;;;;;;;;;;10398675;28;20225;-69
2021/08/27 03:29:11;;;;;;;14.60;7.60;;;;;;;;;;10398575;28;20240;-71
2021/08/27 03:34:14;;;;;;;14.67;8.10;;;;;;;;;;10396028;28;20344;-69
2021/08/27 03:39:20;;;;;;;14.63;6.57;;;;;;;;;;10400421;28;20259;-69
2021/08/27 03:44:22;;;;;;;15.17;7.13;;;;;;;;;;10392718;28;20231;-68
2021/08/27 03:49:25;;;;;;;13.00;7.20;;;;;;;;;;10418342;28;20601;-72
2021/08/27 03:54:29;;;;;;;14.47;7.50;;;;;;;;;;10393497;28;20297;-68
2021/08/27 03:59:33;;;;;;;16.03;8.33;;;;;;;;;;10392915;28;20203;-70
2021/08/27 04:04:35;;;;;;;14.50;7.87;;;;;;;;;;10397901;28;20241;-71
2021/08/27 04:09:39;;;;;;;12.57;6.33;;;;;;;;;;10398287;28;20272;-69
2021/08/27 04:14:42;;;;;;;12.87;5.93;;;;;;;;;;10394764;28;20237;-69
2021/08/27 04:19:45;;;;;;;10.33;5.00;;;;;;;;;;10397714;28;20206;-70
2021/08/27 04:24:49;;;;;;;10.80;5.33;;;;;;;;;;10395739;28;20218;-70
2021/08/27 04:29:52;;;;;;;13.67;5.23;;;;;;;;;;10396728;28;20223;-69
2021/08/27 04:34:55;;;;;;;9.97;4.27;;;;;;;;;;10395644;28;20210;-69
2021/08/27 04:39:59;;;;;;;9.17;3.60;;;;;;;;;;10404033;28;20220;-69
2021/08/27 04:45:02;;;;;;;8.00;3.23;;;;;;;;;;10400020;28;20213;-70
2021/08/27 04:50:05;;;;;;;8.17;3.13;;;;;;;;;;10402626;28;20719;-69
2021/08/27 04:55:10;;;;;;;7.80;3.57;;;;;;;;;;10405973;28;20308;-69
2021/08/27 05:00:13;;;;;;;9.50;4.00;;;;;;;;;;10402083;28;20661;-69
2021/08/27 05:05:15;;;;;;;10.17;4.17;;;;;;;;;;10407973;28;20221;-69
2021/08/27 05:10:20;;;;;;;8.07;3.50;;;;;;;;;;10404656;28;20194;-70
2021/08/27 05:15:23;;;;;;;9.07;3.83;;;;;;;;;;10401700;28;20288;-70
2021/08/27 05:20:27;;;;;;;8.60;3.30;;;;;;;;;;10404572;28;20754;-69
2021/08/27 05:25:31;;;;;;;6.90;2.90;;;;;;;;;;10401766;28;20289;-69
2021/08/27 05:30:34;;;;;;;7.57;3.50;;;;;;;;;;10401713;28;20195;-71
2021/08/27 05:35:36;;;;;;;8.17;3.90;;;;;;;;;;10405813;28;20821;-70
2021/08/27 05:40:40;;;;;;;7.93;4.00;;;;;;;;;;10404241;28;20620;-70
2021/08/27 05:45:43;;;;;;;8.97;4.30;;;;;;;;;;10403753;28;20209;-71
2021/08/27 05:50:46;;;;;;;10.47;5.10;;;;;;;;;;10401213;28;20209;-71
2021/08/27 05:55:50;;;;;;;10.93;5.30;;;;;;;;;;10401830;28;20256;-71
2021/08/27 06:00:53;;;;;;;11.10;5.70;;;;;;;;;;10401695;28;20600;-68
2021/08/27 06:05:56;;;;;;;9.43;4.60;;;;;;;;;;10401095;28;20248;-69
2021/08/27 06:11:00;;;;;;;10.93;5.27;;;;;;;;;;10402832;28;20222;-69
2021/08/27 06:16:03;;;;;;;8.93;4.97;;;;;;;;;;10401449;28;20244;-69
2021/08/27 06:21:06;;;;;;;9.60;4.90;;;;;;;;;;10403891;28;20197;-68
2021/08/27 06:26:10;;;;;;;10.07;4.87;;;;;;;;;;10399889;28;20237;-69
2021/08/27 06:31:13;;;;;;;10.67;4.73;;;;;;;;;;10403448;28;20201;-69
2021/08/27 06:36:15;;;;;;;10.03;4.80;;;;;;;;;;10400070;28;20221;-69
2021/08/27 06:41:19;;;;;;;9.93;4.90;;;;;;;;;;10402764;28;20185;-68
2021/08/27 06:46:23;;;;;;;8.67;3.60;;;;;;;;;;10398566;28;20205;-67
2021/08/27 06:51:27;;;;;;;9.60;4.30;;;;;;;;;;10396606;28;20713;-68
2021/08/27 06:56:31;;;;;;;8.10;3.90;;;;;;;;;;10400014;28;20267;-69
2021/08/27 07:01:34;;;;;;;8.50;4.37;;;;;;;;;;10398134;28;20186;-69
2021/08/27 07:06:37;;;;;;;10.10;4.17;;;;;;;;;;10402763;28;20208;-70
2021/08/27 07:11:41;;;;;;;10.07;3.87;;;;;;;;;;10399378;28;20220;-70
2021/08/27 07:16:44;;;;;;;9.37;3.53;;;;;;;;;;10399194;28;20225;-72
2021/08/27 07:21:46;;;;;;;7.13;3.27;;;;;;;;;;10400003;28;20288;-71
2021/08/27 07:26:50;;;;;;;7.63;3.53;;;;;;;;;;10399928;28;20230;-70
2021/08/27 07:31:54;;;;;;;7.87;3.60;;;;;;;;;;10396289;28;20226;-71
2021/08/27 07:36:57;;;;;;;7.23;2.93;;;;;;;;;;10400156;28;20217;-70
2021/08/27 07:42:01;;;;;;;6.90;3.10;;;;;;;;;;10395459;28;20717;-69
2021/08/27 07:47:04;;;;;;;4.13;2.20;;;;;;;;;;10399818;28;20295;-72
2021/08/27 07:52:07;;;;;;;7.27;2.70;;;;;;;;;;10391862;28;20190;-70
2021/08/27 07:57:11;;;;;;;6.87;2.77;;;;;;;;;;10398097;28;20206;-69
2021/08/27 08:02:14;;;;;;;4.63;2.20;;;;;;;;;;10397584;28;20197;-67
2021/08/27 08:07:17;;;;;;;5.40;2.38;;;;;;;;;;10397192;28;20324;-71
2021/08/27 08:12:21;;;;;;;5.93;2.33;;;;;;;;;;10395122;28;20229;-68
2021/08/27 08:17:24;;;;;;;4.72;2.30;;;;;;;;;;10398157;28;20202;-70
2021/08/27 08:22:27;;;;;;;5.63;2.33;;;;;;;;;;10397459;28;20754;-71
2021/08/27 08:27:34;;;;;;;6.30;2.50;;;;;;;;;;10393211;28;20264;-68
2021/08/27 08:32:36;;;;;;;5.60;2.87;;;;;;;;;;10394575;28;20217;-69
2021/08/27 08:37:40;;;;;;;5.03;2.57;;;;;;;;;;10395904;28;20353;-70
2021/08/27 08:42:44;;;;;;;6.53;2.90;;;;;;;;;;10390500;28;20370;-68
2021/08/27 08:47:48;;;;;;;7.47;3.20;;;;;;;;;;10394386;28;20186;-69
2021/08/27 08:52:51;;;;;;;7.20;3.00;;;;;;;;;;10396291;28;20206;-71
2021/08/27 08:57:55;;;;;;;5.97;2.67;;;;;;;;;;10397739;28;20225;-71
2021/08/27 09:02:59;;;;;;;4.63;2.40;;;;;;;;;;10398071;28;20244;-70
2021/08/27 09:08:03;;;;;;;3.47;2.08;;;;;;;;;;10397334;28;20210;-70
2021/08/27 09:13:07;;;;;;;6.43;2.50;;;;;;;;;;10396686;28;20221;-69
2021/08/27 09:18:10;;;;;;;4.00;2.00;;;;;;;;;;10395640;28;20669;-70
2021/08/27 09:23:19;;;;;;;4.93;2.58;;;;;;;;;;10397732;28;20866;-72
2021/08/27 09:28:23;;;;;;;3.25;1.80;;;;;;;;;;10405415;28;20669;-69
2021/08/27 09:33:28;;;;;;;3.28;1.73;;;;;;;;;;10404884;28;20259;-69
2021/08/27 09:38:31;;;;;;;4.18;2.00;;;;;;;;;;10405460;28;20290;-70
2021/08/27 09:43:45;;;;;;;3.53;1.80;;;;;;;;;;10396423;28;20214;-70
2021/08/27 09:48:48;;;;;;;3.80;1.60;;;;;;;;;;10405964;28;20272;-69
2021/08/27 09:53:51;;;;;;;3.25;1.73;;;;;;;;;;10402227;28;20217;-69
2021/08/27 09:58:55;;;;;;;5.43;2.25;;;;;;;;;;10398182;28;20225;-69
2021/08/27 10:04:05;;;;;;;4.03;1.85;;;;;;;;;;10401792;28;20268;-69
2021/08/27 10:09:08;;;;;;;5.72;2.20;;;;;;;;;;10404149;28;20194;-70
2021/08/27 10:14:12;;;;;;;3.90;1.90;;;;;;;;;;10398928;28;20235;-70
2021/08/27 10:19:15;;;;;;;4.63;1.90;;;;;;;;;;10397278;28;20205;-69
2021/08/27 10:24:17;;;;;;;4.27;1.80;;;;;;;;;;10394078;28;20297;-71
2021/08/27 10:29:22;;;;;;;3.73;1.87;;;;;;;;;;10398529;28;20189;-71
2021/08/27 10:34:41;;;;;;;3.90;1.77;;;;;;;;;;10397480;28;20363;-69
2021/08/27 10:39:48;;;;;;;4.87;2.03;;;;;;;;;;10391453;28;20213;-70
2021/08/27 10:44:53;;;;;;;5.03;2.03;;;;;;;;;;10395251;28;20225;-70
2021/08/27 10:49:56;;;;;;;3.93;2.10;;;;;;;;;;10399967;28;20190;-68
2021/08/27 10:55:06;;;;;;;4.40;1.90;;;;;;;;;;10394696;28;20221;-69
2021/08/27 11:00:11;;;;;;;2.83;1.63;;;;;;;;;;10395753;28;20565;-69
2021/08/27 11:05:30;;;;;;;5.13;2.20;;;;;;;;;;10414941;28;20681;-69
2021/08/27 11:10:33;;;;;;;3.75;1.90;;;;;;;;;;10396621;28;20514;-70
2021/08/27 11:15:38;;;;;;;5.78;2.63;;;;;;;;;;10395674;28;20697;-70
2021/08/27 11:20:41;;;;;;;3.00;1.95;;;;;;;;;;10396131;28;20236;-69
2021/08/27 11:25:57;;;;;;;5.10;2.10;;;;;;;;;;10393766;28;20236;-68
2021/08/27 11:31:08;;;;;;;4.30;1.75;;;;;;;;;;10399105;28;20225;-70
2021/08/27 11:36:11;;;;;;;4.75;2.10;;;;;;;;;;10395690;28;20221;-70
2021/08/27 11:41:15;;;;;;;3.25;1.60;;;;;;;;;;10391541;28;20329;-71
2021/08/27 11:46:22;;;;;;;3.75;2.03;;;;;;;;;;10394835;28;20229;-70
2021/08/27 11:51:28;;;;;;;5.53;2.30;;;;;;;;;;10401194;28;20181;-70
2021/08/27 11:56:30;;;;;;;4.50;2.15;;;;;;;;;;10395109;28;20366;-70
2021/08/27 12:01:35;;;;;;;4.93;2.33;;;;;;;;;;10398098;28;20260;-69
2021/08/27 12:06:38;;;;;;;3.63;2.20;;;;;;;;;;10396430;28;20214;-68
2021/08/27 12:11:40;;;;;;;3.30;1.90;;;;;;;;;;10393603;28;20197;-70
2021/08/27 12:16:45;;;;;;;3.70;2.00;;;;;;;;;;10393052;28;20228;-70
2021/08/27 12:22:01;;;;;;;3.92;1.90;;;;;;;;;;10390999;28;20221;-69
2021/08/27 12:27:04;;;;;;;5.55;2.70;;;;;;;;;;10415860;28;20581;-69
2021/08/27 12:32:13;;;;;;;8.00;4.75;;;;;;;;;;10393333;28;20678;-70
2021/08/27 12:37:17;;;;;;;3.40;2.42;;;;;;;;;;10397530;28;20300;-70
2021/08/27 12:42:20;;;;;;;4.70;1.98;;;;;;;;;;10388675;28;20297;-70
2021/08/27 12:47:30;;;;;;;3.03;1.77;;;;;;;;;;10392817;28;20652;-70
2021/08/27 12:52:33;;;;;;;3.88;1.95;;;;;;;;;;10392774;28;20217;-73
2021/08/27 12:57:45;;;;;;;5.70;2.20;;;;;;;;;;10394595;28;20297;-69
2021/08/27 13:02:50;;;;;;;3.80;2.25;;;;;;;;;;10405181;28;20256;-70
2021/08/27 13:08:07;;;;;;;4.22;1.67;;;;;;;;;;10407701;28;20292;-70
2021/08/27 13:13:25;;;;;;;5.25;2.50;;;;;;;;;;10401292;28;20237;-68
2021/08/27 13:18:38;;;;;;;2.22;1.52;;;;;;;;;;10401921;28;20217;-68
2021/08/27 13:23:41;;;;;;;2.53;1.30;;;;;;;;;;10402299;28;20222;-69
2021/08/27 13:28:43;;;;;;;1.70;1.30;;;;;;;;;;10403680;28;20611;-68
2021/08/27 13:33:48;;;;;;;3.28;1.30;;;;;;;;;;10420750;28;20759;-70
2021/08/27 13:38:50;;;;;;;2.42;1.40;;;;;;;;;;10405763;28;20316;-70
2021/08/27 13:43:53;;;;;;;3.40;1.70;;;;;;;;;;10400005;28;20288;-70
2021/08/27 13:48:57;;;;;;;5.80;2.42;;;;;;;;;;10405807;28;20252;-69
2021/08/27 13:54:03;;;;;;;2.97;1.27;;;;;;;;;;10403991;28;20327;-68
2021/08/27 13:59:06;;;;;;;3.10;1.27;;;;;;;;;;10396445;28;20234;-68
2021/08/27 14:04:10;;;;;;;4.53;2.33;;;;;;;;;;10397299;28;20263;-69
2021/08/27 14:09:13;;;;;;;4.20;1.73;;;;;;;;;;10396040;28;20268;-69
2021/08/27 14:14:16;;;;;;;2.83;1.40;;;;;;;;;;10396659;28;20268;-69
2021/08/27 14:19:20;;;;;;;3.10;1.40;;;;;;;;;;10396360;28;20293;-70
2021/08/27 14:24:23;;;;;;;1.90;1.13;;;;;;;;;;10399417;28;20694;-71
2021/08/27 14:29:26;;;;;;;2.33;1.40;;;;;;;;;;10401251;28;20285;-70
2021/08/27 14:34:30;;;;;;;2.03;1.42;;;;;;;;;;10398772;28;20309;-70
2021/08/27 14:39:33;;;;;;;2.25;1.35;;;;;;;;;;10400639;28;20359;-68
2021/08/27 14:44:35;;;;;;;2.72;1.38;;;;;;;;;;10392653;28;20248;-68
2021/08/27 14:49:40;;;;;;;3.22;1.50;;;;;;;;;;10394978;28;20198;-70
2021/08/27 14:54:42;;;;;;;3.15;1.20;;;;;;;;;;10395928;28;20241;-69
2021/08/27 14:59:45;;;;;;;2.80;1.40;;;;;;;;;;10395379;28;20240;-71
2021/08/27 15:04:49;;;;;;;4.93;2.33;;;;;;;;;;10397042;28;20245;-70
2021/08/27 15:09:52;;;;;;;3.65;1.48;;;;;;;;;;10394475;28;20280;-70
2021/08/27 15:14:55;;;;;;;4.50;1.40;;;;;;;;;;10393879;28;20222;-70
2021/08/27 15:19:59;;;;;;;2.47;1.50;;;;;;;;;;10396465;28;20216;-70
2021/08/27 15:25:02;;;;;;;3.08;1.50;;;;;;;;;;10393156;28;20233;-69
2021/08/27 15:30:06;;;;;;;2.50;1.27;;;;;;;;;;10392311;28;20203;-70
2021/08/27 15:35:11;;;;;;;2.65;1.30;;;;;;;;;;10390444;28;20667;-71
2021/08/27 15:40:14;;;;;;;3.80;1.30;;;;;;;;;;10393913;28;20297;-69
2021/08/27 15:45:17;;;;;;;2.20;1.50;;;;;;;;;;10390514;28;20248;-70
2021/08/27 15:50:21;;;;;;;3.25;1.30;;;;;;;;;;10395268;28;20224;-68
2021/08/27 15:55:23;;;;;;;3.58;1.17;;;;;;;;;;10392275;28;20226;-70
2021/08/27 16:00:26;;;;;;;3.53;1.67;;;;;;;;;;10397191;28;20701;-70
2021/08/27 16:05:33;;;;;;;3.20;1.40;;;;;;;;;;10395845;28;20228;-70
2021/08/27 16:10:36;;;;;;;2.47;1.40;;;;;;;;;;10395504;28;20297;-70
2021/08/27 16:15:39;;;;;;;2.97;1.67;;;;;;;;;;10392050;28;20275;-68
2021/08/27 16:20:44;;;;;;;4.70;1.57;;;;;;;;;;10396008;28;20272;-68
2021/08/27 16:25:47;;;;;;;2.60;1.20;;;;;;;;;;10398617;28;20305;-69
2021/08/27 16:30:50;;;;;;;1.80;1.20;;;;;;;;;;10398225;28;20232;-70
2021/08/27 16:35:54;;;;;;;3.43;1.57;;;;;;;;;;10412846;28;20221;-70
2021/08/27 16:40:58;;;;;;;1.83;1.20;;;;;;;;;;10403533;28;20249;-70
2021/08/27 16:46:01;;;;;;;5.43;1.80;;;;;;;;;;10406392;28;21554;-68
2021/08/27 16:51:05;;;;;;;3.53;1.50;;;;;;;;;;10408802;28;20209;-68
2021/08/27 16:56:08;;;;;;;7.60;3.10;;;;;;;;;;10408594;28;20248;-69
2021/08/27 17:01:10;;;;;;;3.00;1.40;;;;;;;;;;10405871;28;20252;-67
2021/08/27 17:06:14;;;;;;;2.73;1.30;;;;;;;;;;10409955;28;20303;-69
2021/08/27 17:11:17;;;;;;;4.23;1.57;;;;;;;;;;10408200;28;20256;-69
2021/08/27 17:16:20;;;;;;;4.63;1.83;;;;;;;;;;10406835;28;20244;-70
2021/08/27 17:21:24;;;;;;;6.13;2.33;;;;;;;;;;10407790;28;20205;-68
2021/08/27 17:26:27;;;;;;;3.40;1.50;;;;;;;;;;10407627;28;20656;-69
2021/08/27 17:31:30;;;;;;;3.07;1.60;;;;;;;;;;10407735;28;20193;-71
2021/08/27 17:36:34;;;;;;;3.27;1.43;;;;;;;;;;10404402;28;20232;-69
2021/08/27 17:41:36;;;;;;;3.07;1.50;;;;;;;;;;10404268;28;20493;-70
2021/08/27 17:46:40;;;;;;;3.70;1.73;;;;;;;;;;10400129;28;20244;-69
2021/08/27 17:51:44;;;;;;;4.10;1.77;;;;;;;;;;10403069;28;20848;-69
2021/08/27 17:56:48;;;;;;;5.30;2.20;;;;;;;;;;10398915;28;20224;-68
2021/08/27 18:01:51;;;;;;;4.20;1.67;;;;;;;;;;10401608;28;20308;-69
2021/08/27 18:06:55;;;;;;;3.90;1.70;;;;;;;;;;10402788;28;20217;-69
2021/08/27 18:11:58;;;;;;;3.13;1.83;;;;;;;;;;10401298;28;20224;-67
2021/08/27 18:17:01;;;;;;;5.20;2.07;;;;;;;;;;10398196;28;20233;-69
2021/08/27 18:22:05;;;;;;;5.50;1.93;;;;;;;;;;10400924;28;20319;-69
2021/08/27 18:27:08;;;;;;;5.13;1.77;;;;;;;;;;10399251;28;20232;-68
2021/08/27 18:32:10;;;;;;;5.00;2.33;;;;;;;;;;10398213;28;20273;-69
2021/08/27 18:37:14;;;;;;;4.50;2.57;;;;;;;;;;10400649;28;20232;-68
2021/08/27 18:42:17;;;;;;;6.67;3.40;;;;;;;;;;10393953;28;20237;-68
2021/08/27 18:47:20;;;;;;;7.83;3.40;;;;;;;;;;10395471;28;20535;-67
2021/08/27 18:52:24;;;;;;;7.30;3.00;;;;;;;;;;10402895;28;20213;-68
2021/08/27 18:57:27;;;;;;;7.63;3.10;;;;;;;;;;10394968;28;20230;-68
2021/08/27 19:02:30;;;;;;;6.23;2.80;;;;;;;;;;10401433;28;20243;-67
2021/08/27 19:07:34;;;;;;;6.23;2.60;;;;;;;;;;10399541;28;20281;-68
2021/08/27 19:12:39;;;;;;;8.77;3.00;;;;;;;;;;10398468;28;20293;-68
2021/08/27 19:17:42;;;;;;;7.63;3.20;;;;;;;;;;10409531;28;20202;-69
2021/08/27 19:22:46;;;;;;;6.97;3.07;;;;;;;;;;10395397;28;20222;-68
2021/08/27 19:27:49;;;;;;;7.37;3.50;;;;;;;;;;10395345;28;20222;-68
2021/08/27 19:32:52;;;;;;;6.70;3.47;;;;;;;;;;10399547;28;20629;-68
2021/08/27 19:37:56;;;;;;;6.10;3.33;;;;;;;;;;10399557;28;20197;-67
2021/08/27 19:42:59;;;;;;;7.83;3.07;;;;;;;;;;10396694;28;20221;-69
2021/08/27 19:48:02;;;;;;;6.67;3.20;;;;;;;;;;10396805;28;20198;-69
2021/08/27 19:53:06;;;;;;;7.47;3.10;;;;;;;;;;10397160;28;20268;-69
2021/08/27 19:58:08;;;;;;;7.50;3.60;;;;;;;;;;10396648;28;20931;-70
2021/08/27 20:03:11;;;;;;;8.53;3.80;;;;;;;;;;10395290;28;20237;-69
2021/08/27 20:08:16;;;;;;;7.57;4.10;;;;;;;;;;10395125;28;20236;-70
2021/08/27 20:13:18;;;;;;;8.43;3.70;;;;;;;;;;10392694;28;20388;-68
2021/08/27 20:18:21;;;;;;;8.37;3.77;;;;;;;;;;10398092;28;20204;-71
2021/08/27 20:23:25;;;;;;;8.50;4.90;;;;;;;;;;10397114;28;20213;-69
2021/08/27 20:28:28;;;;;;;8.17;3.50;;;;;;;;;;10398060;28;20266;-70
2021/08/27 20:33:31;;;;;;;6.80;3.60;;;;;;;;;;10395440;28;20220;-70
2021/08/27 20:38:35;;;;;;;5.67;3.00;;;;;;;;;;10395021;28;20585;-70
2021/08/27 20:43:39;;;;;;;7.30;3.07;;;;;;;;;;10393850;28;20225;-71
2021/08/27 20:48:42;;;;;;;6.27;3.00;;;;;;;;;;10421672;28;20724;-68
2021/08/27 20:53:47;;;;;;;7.33;3.00;;;;;;;;;;10396744;28;20214;-70
2021/08/27 20:58:49;;;;;;;5.33;2.80;;;;;;;;;;10397621;28;20260;-70
2021/08/27 21:03:52;;;;;;;8.03;3.00;;;;;;;;;;10398322;28;20786;-69
2021/08/27 21:08:56;;;;;;;6.07;2.70;;;;;;;;;;10392371;28;20623;-68
2021/08/27 21:13:59;;;;;;;5.53;2.57;;;;;;;;;;10391802;28;20229;-70
2021/08/27 21:19:02;;;;;;;6.73;2.90;;;;;;;;;;10400984;28;20198;-69
2021/08/27 21:24:06;;;;;;;5.37;2.77;;;;;;;;;;10403183;28;20249;-69
2021/08/27 21:29:09;;;;;;;5.17;2.70;;;;;;;;;;10403341;28;20636;-70
2021/08/27 21:34:11;;;;;;;6.17;2.80;;;;;;;;;;10411950;28;20276;-68
2021/08/27 21:39:15;;;;;;;5.83;2.43;;;;;;;;;;10398781;28;20200;-70
2021/08/27 21:44:18;;;;;;;4.90;2.60;;;;;;;;;;10398408;28;20662;-69
2021/08/27 21:49:21;;;;;;;6.23;2.90;;;;;;;;;;10402741;28;20221;-70
2021/08/27 21:54:25;;;;;;;8.10;3.10;;;;;;;;;;10404041;28;20291;-68
2021/08/27 21:59:28;;;;;;;8.53;3.33;;;;;;;;;;10403175;28;20267;-69
2021/08/27 22:04:30;;;;;;;7.43;3.23;;;;;;;;;;10401597;28;20759;-69
2021/08/27 22:09:35;;;;;;;7.43;3.50;;;;;;;;;;10403319;28;20194;-69
2021/08/27 22:14:37;;;;;;;7.13;3.40;;;;;;;;;;10402687;28;20233;-70
2021/08/27 22:19:41;;;;;;;8.67;3.63;;;;;;;;;;10401856;28;20256;-70
2021/08/27 22:24:45;;;;;;;6.87;3.57;;;;;;;;;;10396492;28;20214;-70
2021/08/27 22:29:49;;;;;;;9.27;4.00;;;;;;;;;;10403203;28;20281;-68
2021/08/27 22:34:52;;;;;;;7.93;3.80;;;;;;;;;;10402084;28;20834;-67
2021/08/27 22:39:56;;;;;;;7.17;3.63;;;;;;;;;;10403458;28;20561;-69
2021/08/27 22:44:59;;;;;;;7.00;3.80;;;;;;;;;;10399988;28;20283;-70
2021/08/27 22:50:01;;;;;;;7.03;3.50;;;;;;;;;;10399147;28;20646;-69
2021/08/27 22:55:08;;;;;;;7.33;3.73;;;;;;;;;;10400003;28;20246;-68
2021/08/27 23:00:11;;;;;;;8.20;3.67;;;;;;;;;;10399193;28;20591;-69
2021/08/27 23:05:14;;;;;;;8.93;4.30;;;;;;;;;;10410323;28;20294;-69
2021/08/27 23:10:18;;;;;;;7.80;4.33;;;;;;;;;;10395244;28;21635;-70
2021/08/27 23:15:21;;;;;;;8.27;4.20;;;;;;;;;;10397688;28;20221;-69
2021/08/27 23:20:24;;;;;;;8.13;4.20;;;;;;;;;;10400333;28;20547;-70
2021/08/27 23:25:28;;;;;;;9.03;4.30;;;;;;;;;;10398888;28;20281;-70
2021/08/27 23:30:31;;;;;;;7.57;3.63;;;;;;;;;;10392082;28;20276;-69
2021/08/27 23:35:33;;;;;;;7.97;4.10;;;;;;;;;;10397594;28;20717;-68
2021/08/27 23:40:37;;;;;;;8.20;4.27;;;;;;;;;;10397384;28;20280;-68
2021/08/27 23:45:40;;;;;;;7.33;3.80;;;;;;;;;;10397128;28;20283;-67
2021/08/27 23:50:43;;;;;;;8.20;4.03;;;;;;;;;;10397619;28;20210;-67
2021/08/27 23:55:48;;;;;;;6.87;3.90;;;;;;;;;;10397578;28;20221;-69
